createdAt,value
2017-06-08T00:00:23.226Z,10.75
2017-06-08T00:01:23.241Z,10.79
2017-06-08T00:02:23.238Z,10.81
2017-06-08T00:03:23.255Z,10.80
2017-06-08T00:04:23.229Z,10.75
2017-06-08T00:05:23.250Z,10.74
2017-06-08T00:06:23.229Z,10.68
2017-06-08T00:07:23.229Z,10.65
2017-06-08T00:08:23.232Z,10.60
2017-06-08T00:09:23.229Z,10.57
2017-06-08T00:10:23.313Z,10.53
2017-06-08T00:11:23.234Z,10.52
2017-06-08T00:12:23.233Z,10.50
2017-06-08T00:13:23.234Z,10.45
2017-06-08T00:14:23.234Z,10.39
2017-06-08T00:15:23.234Z,10.35
2017-06-08T00:16:23.236Z,10.31
2017-06-08T00:17:23.233Z,10.27
2017-06-08T00:18:23.264Z,10.23
2017-06-08T00:19:23.239Z,10.20
2017-06-08T00:20:23.239Z,10.17
2017-06-08T00:21:23.240Z,10.18
2017-06-08T00:22:23.238Z,10.24
2017-06-08T00:23:23.241Z,10.28
2017-06-08T00:24:23.243Z,10.38
2017-06-08T00:25:23.242Z,10.43
2017-06-08T00:26:23.208Z,10.53
2017-06-08T00:27:23.279Z,10.64
2017-06-08T00:28:23.256Z,10.74
2017-06-08T00:29:23.247Z,10.81
2017-06-08T00:30:23.243Z,10.84
2017-06-08T00:31:23.165Z,10.87
2017-06-08T00:32:23.162Z,10.88
2017-06-08T00:33:23.249Z,10.87
2017-06-08T00:34:23.350Z,10.84
2017-06-08T00:35:23.255Z,10.84
2017-06-08T00:36:23.271Z,10.80
2017-06-08T00:37:23.183Z,10.79
2017-06-08T00:38:23.251Z,10.74
2017-06-08T00:39:23.182Z,10.77
2017-06-08T00:40:23.181Z,10.75
2017-06-08T00:41:23.273Z,10.79
2017-06-08T00:42:23.266Z,10.77
2017-06-08T00:43:23.276Z,10.79
2017-06-08T00:44:23.260Z,10.79
2017-06-08T00:45:23.231Z,10.80
2017-06-08T00:46:23.274Z,10.80
2017-06-08T00:47:23.265Z,10.81
2017-06-08T00:48:23.190Z,10.80
2017-06-08T00:49:23.238Z,10.81
2017-06-08T00:50:23.279Z,10.81
2017-06-08T00:51:23.271Z,10.83
2017-06-08T00:52:23.274Z,10.86
2017-06-08T00:53:23.273Z,10.87
2017-06-08T00:54:23.259Z,10.90
2017-06-08T00:55:23.207Z,10.90
2017-06-08T00:56:23.187Z,10.94
2017-06-08T00:57:23.188Z,10.95
2017-06-08T00:58:23.274Z,10.97
2017-06-08T00:59:23.196Z,11.00
2017-06-08T01:00:23.283Z,11.00
2017-06-08T01:01:23.274Z,11.00
2017-06-08T01:02:23.255Z,10.98
2017-06-08T01:03:23.274Z,10.98
2017-06-08T01:04:23.287Z,10.98
2017-06-08T01:05:23.358Z,11.02
2017-06-08T01:06:23.273Z,11.05
2017-06-08T01:07:23.283Z,11.06
2017-06-08T01:08:23.251Z,11.09
2017-06-08T01:09:23.255Z,11.10
2017-06-08T01:10:23.202Z,11.13
2017-06-08T01:11:23.289Z,11.16
2017-06-08T01:12:23.288Z,11.20
2017-06-08T01:13:23.287Z,11.21
2017-06-08T01:14:23.281Z,11.21
2017-06-08T01:15:23.289Z,11.22
2017-06-08T01:16:23.268Z,11.25
2017-06-08T01:17:23.282Z,11.28
2017-06-08T01:18:23.291Z,11.28
2017-06-08T01:19:23.282Z,11.28
2017-06-08T01:20:23.285Z,11.28
2017-06-08T01:21:23.287Z,11.31
2017-06-08T01:22:23.255Z,11.31
2017-06-08T01:23:23.206Z,11.32
2017-06-08T01:24:23.251Z,11.32
2017-06-08T01:25:23.276Z,11.29
2017-06-08T01:26:23.284Z,11.28
2017-06-08T01:27:23.205Z,11.27
2017-06-08T01:28:23.255Z,11.22
2017-06-08T01:29:23.284Z,11.18
2017-06-08T01:30:23.296Z,11.16
2017-06-08T01:31:23.259Z,11.13
2017-06-08T01:32:23.301Z,11.11
2017-06-08T01:33:23.295Z,11.09
2017-06-08T01:34:23.287Z,11.07
2017-06-08T01:35:23.287Z,11.03
2017-06-08T01:36:23.291Z,11.02
2017-06-08T01:37:23.259Z,11.00
2017-06-08T01:38:23.217Z,10.98
2017-06-08T01:39:23.304Z,10.98
2017-06-08T01:40:23.234Z,10.95
2017-06-08T01:41:23.232Z,10.94
2017-06-08T01:42:23.213Z,10.94
2017-06-08T01:43:23.302Z,10.94
2017-06-08T01:44:23.299Z,10.93
2017-06-08T01:45:23.302Z,10.93
2017-06-08T01:46:23.298Z,10.93
2017-06-08T01:47:23.305Z,10.95
2017-06-08T01:48:23.306Z,10.95
2017-06-08T01:49:23.301Z,10.95
2017-06-08T01:50:23.279Z,10.97
2017-06-08T01:51:23.295Z,10.97
2017-06-08T01:52:23.222Z,11.00
2017-06-08T01:53:23.208Z,11.00
2017-06-08T01:54:23.248Z,10.97
2017-06-08T01:55:23.255Z,10.97
2017-06-08T01:56:23.213Z,10.95
2017-06-08T01:57:23.250Z,10.97
2017-06-08T01:58:23.343Z,10.95
2017-06-08T01:59:23.213Z,10.94
2017-06-08T02:00:23.256Z,10.93
2017-06-08T02:01:23.255Z,10.91
2017-06-08T02:02:23.212Z,10.90
2017-06-08T02:03:23.292Z,10.88
2017-06-08T02:04:23.294Z,10.86
2017-06-08T02:05:23.305Z,10.86
2017-06-08T02:06:23.293Z,10.83
2017-06-08T02:07:23.294Z,10.83
2017-06-08T02:08:23.294Z,10.83
2017-06-08T02:09:23.297Z,10.86
2017-06-08T02:10:23.294Z,10.84
2017-06-08T02:11:31.711Z,10.86
2017-06-08T02:12:23.297Z,10.86
2017-06-08T02:13:23.284Z,10.87
2017-06-08T02:14:23.283Z,10.88
2017-06-08T02:16:23.283Z,10.91
2017-06-08T02:17:23.287Z,10.95
2017-06-08T02:18:23.394Z,10.98
2017-06-08T02:19:23.287Z,11.00
2017-06-08T02:20:23.284Z,11.06
2017-06-08T02:21:23.289Z,11.06
2017-06-08T02:22:23.286Z,11.06
2017-06-08T02:23:23.494Z,11.06
2017-06-08T02:24:23.231Z,11.06
2017-06-08T02:25:23.332Z,11.06
2017-06-08T02:26:23.256Z,11.07
2017-06-08T02:27:23.289Z,11.06
2017-06-08T02:28:23.287Z,11.06
2017-06-08T02:29:23.327Z,11.06
2017-06-08T02:30:23.323Z,11.07
2017-06-08T02:31:23.330Z,11.07
2017-06-08T02:32:23.246Z,11.05
2017-06-08T02:33:23.329Z,11.05
2017-06-08T02:34:23.313Z,11.07
2017-06-08T02:35:23.246Z,11.06
2017-06-08T02:36:23.243Z,11.06
2017-06-08T02:38:23.330Z,11.07
2017-06-08T02:39:23.438Z,11.06
2017-06-08T02:40:23.338Z,11.06
2017-06-08T02:41:23.327Z,11.06
2017-06-08T02:42:23.337Z,11.06
2017-06-08T02:43:23.339Z,11.06
2017-06-08T02:44:23.250Z,11.06
2017-06-08T02:45:23.336Z,11.07
2017-06-08T02:46:23.332Z,11.06
2017-06-08T02:47:23.308Z,11.05
2017-06-08T02:48:23.332Z,11.07
2017-06-08T02:49:23.327Z,11.09
2017-06-08T02:50:23.342Z,11.09
2017-06-08T02:51:23.294Z,11.07
2017-06-08T02:52:23.273Z,11.07
2017-06-08T02:53:23.308Z,11.06
2017-06-08T02:54:23.307Z,11.06
2017-06-08T02:55:23.309Z,11.06
2017-06-08T02:56:23.331Z,11.06
2017-06-08T02:57:23.309Z,11.05
2017-06-08T02:58:23.311Z,11.06
2017-06-08T02:59:23.316Z,11.06
2017-06-08T03:00:23.310Z,11.05
2017-06-08T03:01:23.311Z,11.06
2017-06-08T03:02:23.309Z,11.05
2017-06-08T03:03:23.317Z,11.05
2017-06-08T03:04:23.310Z,11.06
2017-06-08T03:05:23.262Z,11.05
2017-06-08T03:06:23.342Z,11.05
2017-06-08T03:07:23.315Z,11.05
2017-06-08T03:08:23.306Z,11.05
2017-06-08T03:09:23.283Z,11.05
2017-06-08T03:10:23.351Z,11.03
2017-06-08T03:11:23.266Z,11.05
2017-06-08T03:12:23.262Z,11.05
2017-06-08T03:13:23.351Z,11.06
2017-06-08T03:14:23.268Z,11.06
2017-06-08T03:15:23.358Z,11.07
2017-06-08T03:16:23.340Z,11.09
2017-06-08T03:17:23.348Z,11.10
2017-06-08T03:18:23.271Z,11.11
2017-06-08T03:19:23.351Z,11.11
2017-06-08T03:20:23.359Z,11.13
2017-06-08T03:21:23.348Z,11.13
2017-06-08T03:22:23.349Z,11.13
2017-06-08T03:23:23.347Z,11.16
2017-06-08T03:24:23.341Z,11.18
2017-06-08T03:25:23.351Z,11.20
2017-06-08T03:26:23.435Z,11.22
2017-06-08T03:27:23.455Z,11.22
2017-06-08T03:28:23.267Z,11.24
2017-06-08T03:29:23.323Z,11.25
2017-06-08T03:30:23.352Z,11.25
2017-06-08T03:31:23.277Z,11.25
2017-06-08T03:32:23.347Z,11.25
2017-06-08T03:33:23.277Z,11.25
2017-06-08T03:34:23.355Z,11.27
2017-06-08T03:35:23.274Z,11.28
2017-06-08T03:36:23.356Z,11.31
2017-06-08T03:37:23.275Z,11.32
2017-06-08T03:38:23.350Z,11.35
2017-06-08T03:39:23.278Z,11.36
2017-06-08T03:41:23.350Z,11.38
2017-06-08T03:42:23.275Z,11.40
2017-06-08T03:43:23.360Z,11.42
2017-06-08T03:44:23.356Z,11.43
2017-06-08T03:45:23.273Z,11.43
2017-06-08T03:46:23.305Z,11.45
2017-06-08T03:47:23.311Z,11.46
2017-06-08T03:48:23.387Z,11.47
2017-06-08T03:49:23.271Z,11.46
2017-06-08T03:50:23.311Z,11.47
2017-06-08T03:51:23.269Z,11.47
2017-06-08T03:52:23.309Z,11.49
2017-06-08T03:53:23.271Z,11.49
2017-06-08T03:54:23.311Z,11.50
2017-06-08T03:55:23.367Z,11.51
2017-06-08T03:56:23.362Z,11.53
2017-06-08T03:57:23.368Z,11.54
2017-06-08T03:58:23.287Z,11.54
2017-06-08T03:59:23.363Z,11.54
2017-06-08T04:00:23.483Z,11.56
2017-06-08T04:01:23.287Z,11.56
2017-06-08T04:02:23.368Z,11.56
2017-06-08T04:03:23.380Z,11.57
2017-06-08T04:04:23.293Z,11.57
2017-06-08T04:05:23.333Z,11.56
2017-06-08T04:06:23.373Z,11.57
2017-06-08T04:07:23.372Z,11.58
2017-06-08T04:08:23.297Z,11.60
2017-06-08T04:09:23.352Z,11.58
2017-06-08T04:10:23.352Z,11.58
2017-06-08T04:11:23.382Z,11.58
2017-06-08T04:12:23.375Z,11.60
2017-06-08T04:13:23.323Z,11.58
2017-06-08T04:14:23.287Z,11.57
2017-06-08T04:15:23.348Z,11.57
2017-06-08T04:16:23.346Z,11.57
2017-06-08T04:17:23.343Z,11.56
2017-06-08T04:18:23.350Z,11.57
2017-06-08T04:19:23.344Z,11.58
2017-06-08T04:20:23.353Z,11.58
2017-06-08T04:21:23.348Z,11.60
2017-06-08T04:22:23.348Z,11.61
2017-06-08T04:23:23.351Z,11.62
2017-06-08T04:24:23.349Z,11.62
2017-06-08T04:25:23.362Z,11.64
2017-06-08T04:26:23.366Z,11.64
2017-06-08T04:27:23.365Z,11.65
2017-06-08T04:28:23.362Z,11.67
2017-06-08T04:29:23.364Z,11.68
2017-06-08T04:30:23.364Z,11.68
2017-06-08T04:31:23.383Z,11.68
2017-06-08T04:32:23.365Z,11.69
2017-06-08T04:33:23.368Z,11.72
2017-06-08T04:34:23.368Z,11.73
2017-06-08T04:35:23.366Z,11.76
2017-06-08T04:36:23.368Z,11.80
2017-06-08T04:37:23.388Z,11.82
2017-06-08T04:38:23.309Z,11.83
2017-06-08T04:39:23.304Z,11.86
2017-06-08T04:40:23.377Z,11.91
2017-06-08T04:41:23.305Z,11.91
2017-06-08T04:42:23.388Z,11.94
2017-06-08T04:43:23.389Z,11.98
2017-06-08T04:44:23.398Z,11.98
2017-06-08T04:45:23.375Z,11.99
2017-06-08T04:46:23.375Z,11.99
2017-06-08T04:47:23.375Z,12.01
2017-06-08T04:48:23.375Z,12.02
2017-06-08T04:49:23.376Z,12.05
2017-06-08T04:50:23.381Z,12.05
2017-06-08T04:51:23.378Z,12.08
2017-06-08T04:52:23.379Z,12.08
2017-06-08T04:53:23.380Z,12.12
2017-06-08T04:54:23.380Z,12.12
2017-06-08T04:55:23.380Z,12.14
2017-06-08T04:56:23.381Z,12.18
2017-06-08T04:57:23.384Z,12.21
2017-06-08T04:58:23.382Z,12.25
2017-06-08T04:59:23.381Z,12.28
2017-06-08T05:00:23.383Z,12.29
2017-06-08T05:01:23.383Z,12.32
2017-06-08T05:02:23.387Z,12.32
2017-06-08T05:03:23.383Z,12.35
2017-06-08T05:04:23.386Z,12.35
2017-06-08T05:05:23.324Z,12.37
2017-06-08T05:06:23.321Z,12.37
2017-06-08T05:07:23.517Z,12.40
2017-06-08T05:08:23.314Z,12.40
2017-06-08T05:09:23.407Z,12.40
2017-06-08T05:10:23.323Z,12.42
2017-06-08T05:11:23.367Z,12.43
2017-06-08T05:12:23.401Z,12.44
2017-06-08T05:13:23.413Z,12.46
2017-06-08T05:14:23.403Z,12.47
2017-06-08T05:15:23.407Z,12.47
2017-06-08T05:16:23.378Z,12.48
2017-06-08T05:17:23.391Z,12.50
2017-06-08T05:18:23.411Z,12.51
2017-06-08T05:19:23.431Z,12.51
2017-06-08T05:20:23.330Z,12.53
2017-06-08T05:21:23.417Z,12.53
2017-06-08T05:22:23.325Z,12.51
2017-06-08T05:23:23.407Z,12.51
2017-06-08T05:24:23.417Z,12.50
2017-06-08T05:25:23.334Z,12.50
2017-06-08T05:26:23.391Z,12.48
2017-06-08T05:27:23.425Z,12.44
2017-06-08T05:28:23.411Z,12.43
2017-06-08T05:29:23.414Z,12.40
2017-06-08T05:30:23.415Z,12.40
2017-06-08T05:31:23.325Z,12.39
2017-06-08T05:32:23.434Z,12.39
2017-06-08T05:33:23.327Z,12.36
2017-06-08T05:34:23.420Z,12.33
2017-06-08T05:35:23.421Z,12.33
2017-06-08T05:36:23.425Z,12.29
2017-06-08T05:37:23.326Z,12.29
2017-06-08T05:38:23.414Z,12.28
2017-06-08T05:39:23.422Z,12.25
2017-06-08T05:40:23.329Z,12.25
2017-06-08T05:41:23.430Z,12.22
2017-06-08T05:42:23.436Z,12.21
2017-06-08T05:43:23.528Z,12.21
2017-06-08T05:44:23.421Z,12.24
2017-06-08T05:45:23.432Z,12.21
2017-06-08T05:46:23.408Z,12.21
2017-06-08T05:47:23.414Z,12.21
2017-06-08T05:48:23.412Z,12.24
2017-06-08T05:49:23.409Z,12.24
2017-06-08T05:50:23.411Z,12.25
2017-06-08T05:51:23.417Z,12.28
2017-06-08T05:52:23.411Z,12.28
2017-06-08T05:53:23.414Z,12.29
2017-06-08T05:54:23.412Z,12.31
2017-06-08T05:55:23.414Z,12.32
2017-06-08T05:56:23.434Z,12.32
2017-06-08T05:57:23.413Z,12.33
2017-06-08T05:58:23.410Z,12.37
2017-06-08T05:59:23.421Z,12.37
2017-06-08T06:00:23.393Z,12.39
2017-06-08T06:01:23.485Z,12.42
2017-06-08T06:02:23.435Z,12.44
2017-06-08T06:03:23.486Z,12.47
2017-06-08T06:04:23.451Z,12.48
2017-06-08T06:05:23.441Z,12.53
2017-06-08T06:06:23.442Z,12.54
2017-06-08T06:07:23.443Z,12.57
2017-06-08T06:08:23.439Z,12.60
2017-06-08T06:09:23.439Z,12.66
2017-06-08T06:10:23.403Z,12.68
2017-06-08T06:11:23.441Z,12.68
2017-06-08T06:12:23.358Z,12.72
2017-06-08T06:13:23.352Z,12.75
2017-06-08T06:14:23.495Z,12.75
2017-06-08T06:15:23.442Z,12.76
2017-06-08T06:16:23.492Z,12.79
2017-06-08T06:17:23.442Z,12.77
2017-06-08T06:18:23.367Z,12.77
2017-06-08T06:19:23.443Z,12.77
2017-06-08T06:20:23.440Z,12.77
2017-06-08T06:21:23.446Z,12.80
2017-06-08T06:22:23.447Z,12.80
2017-06-08T06:23:23.449Z,12.82
2017-06-08T06:24:23.407Z,12.82
2017-06-08T06:25:23.362Z,12.82
2017-06-08T06:26:23.441Z,12.82
2017-06-08T06:27:23.392Z,12.82
2017-06-08T06:28:23.450Z,12.82
2017-06-08T06:29:23.365Z,12.80
2017-06-08T06:30:23.450Z,12.79
2017-06-08T06:31:23.451Z,12.79
2017-06-08T06:32:23.444Z,12.80
2017-06-08T06:33:23.439Z,12.76
2017-06-08T06:34:23.384Z,12.75
2017-06-08T06:35:23.452Z,12.75
2017-06-08T06:36:23.462Z,12.76
2017-06-08T06:37:23.377Z,12.73
2017-06-08T06:38:23.453Z,12.73
2017-06-08T06:39:23.432Z,12.76
2017-06-08T06:40:23.460Z,12.76
2017-06-08T06:41:23.450Z,12.73
2017-06-08T06:42:23.460Z,12.73
2017-06-08T06:43:23.465Z,12.75
2017-06-08T06:44:23.467Z,12.71
2017-06-08T06:45:23.421Z,12.69
2017-06-08T06:46:23.471Z,12.72
2017-06-08T06:47:23.465Z,12.71
2017-06-08T06:48:23.469Z,12.69
2017-06-08T06:49:23.464Z,12.69
2017-06-08T06:50:23.463Z,12.68
2017-06-08T06:51:23.473Z,12.66
2017-06-08T06:52:23.377Z,12.68
2017-06-08T06:53:23.462Z,12.72
2017-06-08T06:54:23.465Z,12.72
2017-06-08T06:55:23.468Z,12.72
2017-06-08T06:56:23.410Z,12.72
2017-06-08T06:57:23.415Z,12.77
2017-06-08T06:58:23.470Z,12.76
2017-06-08T06:59:23.368Z,12.77
2017-06-08T07:00:23.366Z,12.82
2017-06-08T07:01:23.410Z,12.86
2017-06-08T07:02:23.403Z,12.92
2017-06-08T07:03:23.358Z,12.95
2017-06-08T07:04:23.368Z,12.96
2017-06-08T07:05:23.404Z,12.96
2017-06-08T07:06:23.473Z,13.03
2017-06-08T07:07:23.430Z,13.10
2017-06-08T07:08:23.443Z,13.14
2017-06-08T07:09:23.469Z,13.18
2017-06-08T07:10:23.428Z,13.23
2017-06-08T07:11:23.462Z,13.24
2017-06-08T07:12:23.394Z,13.23
2017-06-08T07:13:23.480Z,13.25
2017-06-08T07:14:23.462Z,13.24
2017-06-08T07:15:23.480Z,13.24
2017-06-08T07:16:23.480Z,13.27
2017-06-08T07:17:23.433Z,13.29
2017-06-08T07:18:23.474Z,13.32
2017-06-08T07:19:23.452Z,13.32
2017-06-08T07:20:23.435Z,13.35
2017-06-08T07:21:23.472Z,13.38
2017-06-08T07:22:23.398Z,13.39
2017-06-08T07:23:23.397Z,13.39
2017-06-08T07:24:23.489Z,13.39
2017-06-08T07:25:23.494Z,13.39
2017-06-08T07:26:23.447Z,13.39
2017-06-08T07:27:23.450Z,13.36
2017-06-08T07:28:23.449Z,13.38
2017-06-08T07:29:23.476Z,13.34
2017-06-08T07:30:23.447Z,13.36
2017-06-08T07:31:23.552Z,13.42
2017-06-08T07:32:23.452Z,13.43
2017-06-08T07:33:23.454Z,13.39
2017-06-08T07:34:23.455Z,13.39
2017-06-08T07:35:23.453Z,13.42
2017-06-08T07:36:23.467Z,13.39
2017-06-08T07:37:23.464Z,13.36
2017-06-08T07:38:23.554Z,13.39
2017-06-08T07:39:23.466Z,13.42
2017-06-08T07:40:23.472Z,13.40
2017-06-08T07:41:23.471Z,13.39
2017-06-08T07:42:23.470Z,13.39
2017-06-08T07:43:23.466Z,13.38
2017-06-08T07:44:23.470Z,13.38
2017-06-08T07:45:23.469Z,13.39
2017-06-08T07:46:23.541Z,13.38
2017-06-08T07:47:23.402Z,13.43
2017-06-08T07:48:23.409Z,13.45
2017-06-08T07:49:23.448Z,13.46
2017-06-08T07:50:23.406Z,13.47
2017-06-08T07:51:23.531Z,13.49
2017-06-08T07:52:23.472Z,13.53
2017-06-08T07:53:23.498Z,13.54
2017-06-08T07:54:23.411Z,13.62
2017-06-08T07:55:23.411Z,13.65
2017-06-08T07:56:23.497Z,13.66
2017-06-08T07:57:23.496Z,13.66
2017-06-08T07:58:23.414Z,13.68
2017-06-08T07:59:23.415Z,13.70
2017-06-08T08:00:23.476Z,13.73
2017-06-08T08:01:23.546Z,13.77
2017-06-08T08:02:23.491Z,13.79
2017-06-08T08:03:23.501Z,13.84
2017-06-08T08:04:23.443Z,13.88
2017-06-08T08:05:23.499Z,13.88
2017-06-08T08:06:23.417Z,13.88
2017-06-08T08:07:23.483Z,13.84
2017-06-08T08:08:23.463Z,13.84
2017-06-08T08:09:23.502Z,13.80
2017-06-08T08:10:23.505Z,13.80
2017-06-08T08:11:23.498Z,13.76
2017-06-08T08:12:23.421Z,13.73
2017-06-08T08:13:23.447Z,13.70
2017-06-08T08:14:23.484Z,13.68
2017-06-08T08:15:23.496Z,13.69
2017-06-08T08:16:23.507Z,13.66
2017-06-08T08:17:23.507Z,13.65
2017-06-08T08:18:23.491Z,13.66
2017-06-08T08:19:23.538Z,13.69
2017-06-08T08:20:23.430Z,13.69
2017-06-08T08:21:23.508Z,13.73
2017-06-08T08:22:23.508Z,13.72
2017-06-08T08:23:23.425Z,13.72
2017-06-08T08:24:23.515Z,13.72
2017-06-08T08:25:23.503Z,13.72
2017-06-08T08:26:23.473Z,13.73
2017-06-08T08:27:23.427Z,13.75
2017-06-08T08:28:23.522Z,13.75
2017-06-08T08:29:23.489Z,13.75
2017-06-08T08:30:23.513Z,13.76
2017-06-08T08:31:23.514Z,13.79
2017-06-08T08:32:23.426Z,13.80
2017-06-08T08:33:23.515Z,13.81
2017-06-08T08:34:23.521Z,13.88
2017-06-08T08:35:23.429Z,13.88
2017-06-08T08:36:23.501Z,13.91
2017-06-08T08:37:23.498Z,13.95
2017-06-08T08:38:23.505Z,13.93
2017-06-08T08:39:23.415Z,13.96
2017-06-08T08:40:23.502Z,13.96
2017-06-08T08:41:23.501Z,13.99
2017-06-08T08:42:23.505Z,14.00
2017-06-08T08:43:23.502Z,14.00
2017-06-08T08:44:23.506Z,14.06
2017-06-08T08:45:23.505Z,14.14
2017-06-08T08:46:23.497Z,14.14
2017-06-08T08:47:23.490Z,14.09
2017-06-08T08:48:23.495Z,14.10
2017-06-08T08:49:23.492Z,14.13
2017-06-08T08:50:23.495Z,14.15
2017-06-08T08:51:23.494Z,14.17
2017-06-08T08:52:23.496Z,14.18
2017-06-08T08:53:23.497Z,14.24
2017-06-08T08:54:23.497Z,14.24
2017-06-08T08:55:23.497Z,14.28
2017-06-08T08:56:23.498Z,14.28
2017-06-08T08:57:23.500Z,14.32
2017-06-08T08:58:23.497Z,14.29
2017-06-08T08:59:23.495Z,14.31
2017-06-08T09:00:23.500Z,14.31
2017-06-08T09:01:23.502Z,14.32
2017-06-08T09:02:23.496Z,14.31
2017-06-08T09:03:23.499Z,14.27
2017-06-08T09:04:23.499Z,14.25
2017-06-08T09:05:23.499Z,14.25
2017-06-08T09:06:23.501Z,14.29
2017-06-08T09:07:23.516Z,14.29
2017-06-08T09:08:23.517Z,14.25
2017-06-08T09:09:23.521Z,14.29
2017-06-08T09:10:23.518Z,14.31
2017-06-08T09:11:23.519Z,14.33
2017-06-08T09:12:23.519Z,14.35
2017-06-08T09:13:23.517Z,14.36
2017-06-08T09:14:23.525Z,14.40
2017-06-08T09:15:23.519Z,14.42
2017-06-08T09:16:23.527Z,14.42
2017-06-08T09:17:23.503Z,14.44
2017-06-08T09:18:23.461Z,14.44
2017-06-08T09:19:23.497Z,14.49
2017-06-08T09:20:23.551Z,14.47
2017-06-08T09:21:23.542Z,14.51
2017-06-08T09:22:23.528Z,14.53
2017-06-08T09:23:23.458Z,14.55
2017-06-08T09:24:23.466Z,14.57
2017-06-08T09:25:23.543Z,14.62
2017-06-08T09:26:23.460Z,14.62
2017-06-08T09:27:23.500Z,14.64
2017-06-08T09:28:23.541Z,14.62
2017-06-08T09:29:23.549Z,14.64
2017-06-08T09:30:23.469Z,14.62
2017-06-08T09:31:23.554Z,14.61
2017-06-08T09:32:23.461Z,14.57
2017-06-08T09:33:23.453Z,14.58
2017-06-08T09:34:23.543Z,14.60
2017-06-08T09:35:23.550Z,14.61
2017-06-08T09:36:23.549Z,14.65
2017-06-08T09:37:23.548Z,14.68
2017-06-08T09:38:23.460Z,14.69
2017-06-08T09:39:23.507Z,14.71
2017-06-08T09:40:23.511Z,14.69
2017-06-08T09:41:23.555Z,14.73
2017-06-08T09:42:23.467Z,14.76
2017-06-08T09:43:23.531Z,14.79
2017-06-08T09:44:23.525Z,14.83
2017-06-08T09:45:23.554Z,14.91
2017-06-08T09:46:23.535Z,14.95
2017-06-08T09:47:23.471Z,15.03
2017-06-08T09:48:23.464Z,15.10
2017-06-08T09:49:23.513Z,15.18
2017-06-08T09:50:23.557Z,15.24
2017-06-08T09:51:23.473Z,15.35
2017-06-08T09:52:23.551Z,15.42
2017-06-08T09:53:23.562Z,15.44
2017-06-08T09:54:23.473Z,15.51
2017-06-08T09:55:23.556Z,15.54
2017-06-08T09:56:23.476Z,15.59
2017-06-08T09:57:23.571Z,15.61
2017-06-08T09:58:23.487Z,15.55
2017-06-08T09:59:23.526Z,15.57
2017-06-08T10:00:23.542Z,15.55
2017-06-08T10:01:23.571Z,15.61
2017-06-08T10:02:23.479Z,15.65
2017-06-08T10:03:23.570Z,15.64
2017-06-08T10:04:23.562Z,15.66
2017-06-08T10:05:23.523Z,15.70
2017-06-08T10:06:23.565Z,15.73
2017-06-08T10:07:23.546Z,15.80
2017-06-08T10:08:23.523Z,15.86
2017-06-08T10:09:23.546Z,15.90
2017-06-08T10:10:23.551Z,15.95
2017-06-08T10:11:23.550Z,16.00
2017-06-08T10:12:23.547Z,16.09
2017-06-08T10:13:23.550Z,16.13
2017-06-08T10:14:23.550Z,16.14
2017-06-08T10:15:23.566Z,16.11
2017-06-08T10:16:23.552Z,16.09
2017-06-08T10:17:23.610Z,16.07
2017-06-08T10:18:23.572Z,16.07
2017-06-08T10:19:23.572Z,16.14
2017-06-08T10:20:23.549Z,16.22
2017-06-08T10:21:23.494Z,16.18
2017-06-08T10:22:23.571Z,16.28
2017-06-08T10:23:23.575Z,16.43
2017-06-08T10:24:23.572Z,16.58
2017-06-08T10:25:23.582Z,16.70
2017-06-08T10:26:23.682Z,16.79
2017-06-08T10:27:23.584Z,16.80
2017-06-08T10:28:23.573Z,16.90
2017-06-08T10:29:23.589Z,17.06
2017-06-08T10:30:23.576Z,17.29
2017-06-08T10:31:23.586Z,17.50
2017-06-08T10:32:23.573Z,17.68
2017-06-08T10:33:23.586Z,17.77
2017-06-08T10:34:23.570Z,17.77
2017-06-08T10:35:23.560Z,17.84
2017-06-08T10:36:23.587Z,17.89
2017-06-08T10:37:23.550Z,17.92
2017-06-08T10:38:23.566Z,18.00
2017-06-08T10:39:23.499Z,18.05
2017-06-08T10:40:23.502Z,18.13
2017-06-08T10:41:23.505Z,18.23
2017-06-08T10:42:23.499Z,18.41
2017-06-08T10:43:23.499Z,18.44
2017-06-08T10:44:23.590Z,18.46
2017-06-08T10:45:23.563Z,18.77
2017-06-08T10:46:23.498Z,19.06
2017-06-08T10:47:23.583Z,19.32
2017-06-08T10:48:23.642Z,19.42
2017-06-08T10:49:23.501Z,19.44
2017-06-08T10:50:23.592Z,19.47
2017-06-08T10:51:23.600Z,19.70
2017-06-08T10:52:23.508Z,19.85
2017-06-08T10:53:23.506Z,20.06
2017-06-08T10:54:23.594Z,20.27
2017-06-08T10:55:23.597Z,20.23
2017-06-08T10:56:23.512Z,20.20
2017-06-08T10:57:23.580Z,20.05
2017-06-08T10:58:23.576Z,19.98
2017-06-08T10:59:23.578Z,20.17
2017-06-08T11:00:23.577Z,20.27
2017-06-08T11:01:23.582Z,20.50
2017-06-08T11:02:23.576Z,20.87
2017-06-08T11:03:23.576Z,21.18
2017-06-08T11:04:23.580Z,21.35
2017-06-08T11:05:23.575Z,21.16
2017-06-08T11:06:23.577Z,21.28
2017-06-08T11:07:23.577Z,21.13
2017-06-08T11:08:23.579Z,20.87
2017-06-08T11:09:23.581Z,21.14
2017-06-08T11:10:23.581Z,21.09
2017-06-08T11:11:23.579Z,21.34
2017-06-08T11:12:23.587Z,21.56
2017-06-08T11:13:23.584Z,21.57
2017-06-08T11:14:23.583Z,21.62
2017-06-08T11:15:23.581Z,21.71
2017-06-08T11:16:23.584Z,21.82
2017-06-08T11:17:23.583Z,22.12
2017-06-08T11:18:23.624Z,22.31
2017-06-08T11:19:23.583Z,22.21
2017-06-08T11:20:23.583Z,22.01
2017-06-08T11:21:23.590Z,22.20
2017-06-08T11:22:23.585Z,22.06
2017-06-08T11:23:23.593Z,22.09
2017-06-08T11:24:23.591Z,21.78
2017-06-08T11:25:23.586Z,21.89
2017-06-08T11:26:23.592Z,21.89
2017-06-08T11:27:23.528Z,21.62
2017-06-08T11:28:23.617Z,21.83
2017-06-08T11:29:23.610Z,22.13
2017-06-08T11:30:23.612Z,22.34
2017-06-08T11:31:23.527Z,22.53
2017-06-08T11:32:23.614Z,22.61
2017-06-08T11:33:23.718Z,22.59
2017-06-08T11:34:23.614Z,22.43
2017-06-08T11:35:23.619Z,22.36
2017-06-08T11:36:23.524Z,22.17
2017-06-08T11:37:23.522Z,22.28
2017-06-08T11:38:23.615Z,22.46
2017-06-08T11:39:23.558Z,22.25
2017-06-08T11:40:23.603Z,22.01
2017-06-08T11:41:23.528Z,22.23
2017-06-08T11:42:23.533Z,22.52
2017-06-08T11:43:23.536Z,22.56
2017-06-08T11:44:23.562Z,22.42
2017-06-08T11:45:23.560Z,22.63
2017-06-08T11:46:23.559Z,22.65
2017-06-08T11:47:23.532Z,22.80
2017-06-08T11:48:23.500Z,22.76
2017-06-08T11:49:23.502Z,22.56
2017-06-08T11:50:23.518Z,22.77
2017-06-08T11:51:23.519Z,22.91
2017-06-08T11:52:23.559Z,23.16
2017-06-08T11:53:23.522Z,23.27
2017-06-08T11:54:23.590Z,23.35
2017-06-08T11:55:23.593Z,23.17
2017-06-08T11:56:23.596Z,23.06
2017-06-08T11:57:23.590Z,22.98
2017-06-08T11:58:23.712Z,22.72
2017-06-08T11:59:23.594Z,22.56
2017-06-08T12:00:23.701Z,22.43
2017-06-08T12:01:23.596Z,22.34
2017-06-08T12:02:23.601Z,22.27
2017-06-08T12:03:23.597Z,22.13
2017-06-08T12:04:23.589Z,22.06
2017-06-08T12:05:23.631Z,21.96
2017-06-08T12:06:23.547Z,21.96
2017-06-08T12:07:23.639Z,21.98
2017-06-08T12:08:23.548Z,21.96
2017-06-08T12:09:23.595Z,21.98
2017-06-08T12:10:23.639Z,22.21
2017-06-08T12:11:23.634Z,22.35
2017-06-08T12:12:23.641Z,22.36
2017-06-08T12:13:23.613Z,22.32
2017-06-08T12:14:23.620Z,22.36
2017-06-08T12:15:23.618Z,22.38
2017-06-08T12:16:23.617Z,22.41
2017-06-08T12:17:23.617Z,22.38
2017-06-08T12:18:23.617Z,22.27
2017-06-08T12:19:23.737Z,22.28
2017-06-08T12:20:23.622Z,22.25
2017-06-08T12:21:23.621Z,22.42
2017-06-08T12:22:23.624Z,22.61
2017-06-08T12:23:23.623Z,22.80
2017-06-08T12:24:23.620Z,22.88
2017-06-08T12:25:23.616Z,22.91
2017-06-08T12:26:23.626Z,22.82
2017-06-08T12:27:23.624Z,22.71
2017-06-08T12:28:23.622Z,22.60
2017-06-08T12:29:23.630Z,22.56
2017-06-08T12:30:23.629Z,22.59
2017-06-08T12:31:23.623Z,22.60
2017-06-08T12:32:23.626Z,22.56
2017-06-08T12:33:23.626Z,22.71
2017-06-08T12:34:23.629Z,23.16
2017-06-08T12:35:23.629Z,23.34
2017-06-08T12:36:23.626Z,23.26
2017-06-08T12:37:23.626Z,23.27
2017-06-08T12:38:23.628Z,23.28
2017-06-08T12:39:23.644Z,23.08
2017-06-08T12:40:23.630Z,23.05
2017-06-08T12:41:23.631Z,23.24
2017-06-08T12:42:23.550Z,23.33
2017-06-08T12:43:23.630Z,23.58
2017-06-08T12:44:23.551Z,23.74
2017-06-08T12:45:23.530Z,23.82
2017-06-08T12:46:23.547Z,24.02
2017-06-08T12:47:23.500Z,24.09
2017-06-08T12:48:23.572Z,24.08
2017-06-08T12:49:23.526Z,23.85
2017-06-08T12:50:23.623Z,23.87
2017-06-08T12:51:23.577Z,23.96
2017-06-08T12:52:23.553Z,23.97
2017-06-08T12:53:23.551Z,24.07
2017-06-08T12:54:23.614Z,23.93
2017-06-08T12:55:23.655Z,23.85